sensor_id;sensor_type;location;lat;lon;timestamp;temperature;humidity
51801;DHT22;37855;53.204;6.568;2022-09-03T00:01:23;18.30;57.90
51801;DHT22;37855;53.204;6.568;2022-09-03T00:03:58;18.20;57.80
51801;DHT22;37855;53.204;6.568;2022-09-03T00:06:37;18.20;57.60
51801;DHT22;37855;53.204;6.568;2022-09-03T00:09:35;18.20;57.80
51801;DHT22;37855;53.204;6.568;2022-09-03T00:12:35;18.10;58.30
51801;DHT22;37855;53.204;6.568;2022-09-03T00:15:10;18.20;58.20
51801;DHT22;37855;53.204;6.568;2022-09-03T00:17:47;18.10;57.90
51801;DHT22;37855;53.204;6.568;2022-09-03T00:23:04;18.00;58.00
51801;DHT22;37855;53.204;6.568;2022-09-03T00:28:29;18.00;58.30
51801;DHT22;37855;53.204;6.568;2022-09-03T00:31:31;18.00;58.40
51801;DHT22;37855;53.204;6.568;2022-09-03T00:34:10;18.00;58.80
51801;DHT22;37855;53.204;6.568;2022-09-03T00:36:44;18.00;58.50
51801;DHT22;37855;53.204;6.568;2022-09-03T00:39:12;17.90;58.50
51801;DHT22;37855;53.204;6.568;2022-09-03T00:50:06;17.80;58.80
51801;DHT22;37855;53.204;6.568;2022-09-03T00:52:42;17.80;59.20
51801;DHT22;37855;53.204;6.568;2022-09-03T01:00:41;17.80;58.80
51801;DHT22;37855;53.204;6.568;2022-09-03T01:03:37;17.80;58.90
51801;DHT22;37855;53.204;6.568;2022-09-03T01:06:17;17.80;59.40
51801;DHT22;37855;53.204;6.568;2022-09-03T01:14:30;17.70;58.70
51801;DHT22;37855;53.204;6.568;2022-09-03T01:17:21;17.70;59.50
51801;DHT22;37855;53.204;6.568;2022-09-03T01:20:17;17.70;59.30
51801;DHT22;37855;53.204;6.568;2022-09-03T01:26:15;17.60;59.70
51801;DHT22;37855;53.204;6.568;2022-09-03T01:28:56;17.40;59.80
51801;DHT22;37855;53.204;6.568;2022-09-03T01:36:58;17.30;60.40
51801;DHT22;37855;53.204;6.568;2022-09-03T01:42:08;17.20;60.50
51801;DHT22;37855;53.204;6.568;2022-09-03T01:50:26;17.10;61.20
51801;DHT22;37855;53.204;6.568;2022-09-03T01:53:17;17.10;62.00
51801;DHT22;37855;53.204;6.568;2022-09-03T02:00:54;17.00;61.40
51801;DHT22;37855;53.204;6.568;2022-09-03T02:03:24;16.90;61.50
51801;DHT22;37855;53.204;6.568;2022-09-03T02:05:50;16.80;61.50
51801;DHT22;37855;53.204;6.568;2022-09-03T02:08:18;16.90;61.60
51801;DHT22;37855;53.204;6.568;2022-09-03T02:10:48;16.80;61.90
51801;DHT22;37855;53.204;6.568;2022-09-03T02:15:48;16.70;63.00
51801;DHT22;37855;53.204;6.568;2022-09-03T02:18:28;16.60;63.20
51801;DHT22;37855;53.204;6.568;2022-09-03T02:20:56;16.60;64.50
51801;DHT22;37855;53.204;6.568;2022-09-03T02:23:24;16.40;65.00
51801;DHT22;37855;53.204;6.568;2022-09-03T02:25:54;16.30;65.70
51801;DHT22;37855;53.204;6.568;2022-09-03T02:28:21;16.30;66.20
51801;DHT22;37855;53.204;6.568;2022-09-03T02:30:47;16.20;66.30
51801;DHT22;37855;53.204;6.568;2022-09-03T02:33:14;16.10;66.90
51801;DHT22;37855;53.204;6.568;2022-09-03T02:35:41;16.10;67.20
51801;DHT22;37855;53.204;6.568;2022-09-03T02:38:12;15.90;67.40
51801;DHT22;37855;53.204;6.568;2022-09-03T02:40:37;16.00;67.70
51801;DHT22;37855;53.204;6.568;2022-09-03T02:43:05;16.00;67.60
51801;DHT22;37855;53.204;6.568;2022-09-03T02:45:32;16.00;68.40
51801;DHT22;37855;53.204;6.568;2022-09-03T02:47:59;16.00;68.20
51801;DHT22;37855;53.204;6.568;2022-09-03T02:50:25;15.90;68.20
51801;DHT22;37855;53.204;6.568;2022-09-03T02:52:51;16.00;68.90
51801;DHT22;37855;53.204;6.568;2022-09-03T02:55:18;15.90;69.00
51801;DHT22;37855;53.204;6.568;2022-09-03T02:57:44;15.90;69.10
51801;DHT22;37855;53.204;6.568;2022-09-03T03:00:11;15.90;69.00
51801;DHT22;37855;53.204;6.568;2022-09-03T03:02:37;15.90;69.00
51801;DHT22;37855;53.204;6.568;2022-09-03T03:05:03;15.90;69.20
51801;DHT22;37855;53.204;6.568;2022-09-03T03:07:35;15.90;69.00
51801;DHT22;37855;53.204;6.568;2022-09-03T03:10:02;16.00;69.10
51801;DHT22;37855;53.204;6.568;2022-09-03T03:12:28;15.90;69.00
51801;DHT22;37855;53.204;6.568;2022-09-03T03:14:55;15.90;69.20
51801;DHT22;37855;53.204;6.568;2022-09-03T03:17:21;15.90;69.20
51801;DHT22;37855;53.204;6.568;2022-09-03T03:19:46;15.90;69.30
51801;DHT22;37855;53.204;6.568;2022-09-03T03:22:13;15.90;69.30
51801;DHT22;37855;53.204;6.568;2022-09-03T03:24:39;15.80;69.60
51801;DHT22;37855;53.204;6.568;2022-09-03T03:27:05;15.80;69.60
51801;DHT22;37855;53.204;6.568;2022-09-03T03:29:31;15.80;69.40
51801;DHT22;37855;53.204;6.568;2022-09-03T03:31:57;15.80;69.40
51801;DHT22;37855;53.204;6.568;2022-09-03T03:34:23;15.80;69.40
51801;DHT22;37855;53.204;6.568;2022-09-03T03:36:48;15.80;69.90
51801;DHT22;37855;53.204;6.568;2022-09-03T03:39:14;15.80;69.50
51801;DHT22;37855;53.204;6.568;2022-09-03T03:41:39;15.80;69.40
51801;DHT22;37855;53.204;6.568;2022-09-03T03:44:06;15.90;69.70
51801;DHT22;37855;53.204;6.568;2022-09-03T03:46:37;15.90;69.60
51801;DHT22;37855;53.204;6.568;2022-09-03T03:49:04;15.90;69.40
51801;DHT22;37855;53.204;6.568;2022-09-03T03:51:33;15.80;69.60
51801;DHT22;37855;53.204;6.568;2022-09-03T03:53:59;15.80;69.70
51801;DHT22;37855;53.204;6.568;2022-09-03T03:56:26;15.80;69.80
51801;DHT22;37855;53.204;6.568;2022-09-03T03:58:52;15.80;70.00
51801;DHT22;37855;53.204;6.568;2022-09-03T04:01:21;15.80;70.10
51801;DHT22;37855;53.204;6.568;2022-09-03T04:03:47;15.90;70.20
51801;DHT22;37855;53.204;6.568;2022-09-03T04:06:14;15.90;70.10
51801;DHT22;37855;53.204;6.568;2022-09-03T04:08:42;15.80;70.20
51801;DHT22;37855;53.204;6.568;2022-09-03T04:11:10;15.80;70.60
51801;DHT22;37855;53.204;6.568;2022-09-03T04:13:38;15.70;71.30
51801;DHT22;37855;53.204;6.568;2022-09-03T04:16:07;15.60;71.50
51801;DHT22;37855;53.204;6.568;2022-09-03T04:18:33;15.60;72.20
51801;DHT22;37855;53.204;6.568;2022-09-03T04:21:05;15.60;71.30
51801;DHT22;37855;53.204;6.568;2022-09-03T04:23:32;15.70;71.50
51801;DHT22;37855;53.204;6.568;2022-09-03T04:25:58;15.60;71.70
51801;DHT22;37855;53.204;6.568;2022-09-03T04:28:24;15.60;71.70
51801;DHT22;37855;53.204;6.568;2022-09-03T04:30:50;15.60;71.80
51801;DHT22;37855;53.204;6.568;2022-09-03T04:33:16;15.60;71.70
51801;DHT22;37855;53.204;6.568;2022-09-03T04:35:41;15.60;71.70
51801;DHT22;37855;53.204;6.568;2022-09-03T04:38:07;15.60;71.80
51801;DHT22;37855;53.204;6.568;2022-09-03T04:40:33;15.60;71.70
51801;DHT22;37855;53.204;6.568;2022-09-03T04:42:59;15.50;72.10
51801;DHT22;37855;53.204;6.568;2022-09-03T04:45:26;15.50;72.30
51801;DHT22;37855;53.204;6.568;2022-09-03T04:48:00;15.50;72.50
51801;DHT22;37855;53.204;6.568;2022-09-03T04:50:27;15.50;72.50
51801;DHT22;37855;53.204;6.568;2022-09-03T04:52:54;15.60;72.40
51801;DHT22;37855;53.204;6.568;2022-09-03T04:55:24;15.60;72.40
51801;DHT22;37855;53.204;6.568;2022-09-03T04:57:50;15.70;72.10
51801;DHT22;37855;53.204;6.568;2022-09-03T05:00:16;15.70;72.10
51801;DHT22;37855;53.204;6.568;2022-09-03T05:02:43;15.70;72.10
51801;DHT22;37855;53.204;6.568;2022-09-03T05:05:11;15.70;72.20
51801;DHT22;37855;53.204;6.568;2022-09-03T05:07:37;15.70;72.30
51801;DHT22;37855;53.204;6.568;2022-09-03T05:10:08;15.80;71.80
51801;DHT22;37855;53.204;6.568;2022-09-03T05:12:37;15.80;72.10
51801;DHT22;37855;53.204;6.568;2022-09-03T05:15:04;15.80;71.80
51801;DHT22;37855;53.204;6.568;2022-09-03T05:17:30;15.80;72.00
51801;DHT22;37855;53.204;6.568;2022-09-03T05:19:56;15.80;72.10
51801;DHT22;37855;53.204;6.568;2022-09-03T05:22:22;15.70;71.90
51801;DHT22;37855;53.204;6.568;2022-09-03T05:24:48;15.70;72.10
51801;DHT22;37855;53.204;6.568;2022-09-03T05:27:15;15.60;72.50
51801;DHT22;37855;53.204;6.568;2022-09-03T05:29:43;15.60;72.60
51801;DHT22;37855;53.204;6.568;2022-09-03T05:32:10;15.60;72.60
51801;DHT22;37855;53.204;6.568;2022-09-03T05:34:37;15.60;73.10
51801;DHT22;37855;53.204;6.568;2022-09-03T05:37:02;15.50;73.70
51801;DHT22;37855;53.204;6.568;2022-09-03T05:39:28;15.50;72.90
51801;DHT22;37855;53.204;6.568;2022-09-03T05:41:53;15.60;72.80
51801;DHT22;37855;53.204;6.568;2022-09-03T05:44:19;15.60;72.50
51801;DHT22;37855;53.204;6.568;2022-09-03T05:46:48;15.50;72.90
51801;DHT22;37855;53.204;6.568;2022-09-03T05:49:14;15.40;72.90
51801;DHT22;37855;53.204;6.568;2022-09-03T05:51:40;15.50;72.90
51801;DHT22;37855;53.204;6.568;2022-09-03T05:54:07;15.40;73.10
51801;DHT22;37855;53.204;6.568;2022-09-03T05:56:33;15.40;73.30
51801;DHT22;37855;53.204;6.568;2022-09-03T05:59:02;15.40;73.50
51801;DHT22;37855;53.204;6.568;2022-09-03T06:01:37;15.40;73.80
51801;DHT22;37855;53.204;6.568;2022-09-03T06:04:09;15.40;73.60
51801;DHT22;37855;53.204;6.568;2022-09-03T06:06:37;15.40;73.60
51801;DHT22;37855;53.204;6.568;2022-09-03T06:09:05;15.40;73.40
51801;DHT22;37855;53.204;6.568;2022-09-03T06:11:33;15.40;73.60
51801;DHT22;37855;53.204;6.568;2022-09-03T06:14:02;15.40;73.70
51801;DHT22;37855;53.204;6.568;2022-09-03T06:16:31;15.30;73.60
51801;DHT22;37855;53.204;6.568;2022-09-03T06:18:56;15.40;73.70
51801;DHT22;37855;53.204;6.568;2022-09-03T06:21:23;15.40;74.00
51801;DHT22;37855;53.204;6.568;2022-09-03T06:23:50;15.30;74.10
51801;DHT22;37855;53.204;6.568;2022-09-03T06:26:17;15.30;74.20
51801;DHT22;37855;53.204;6.568;2022-09-03T06:28:44;15.40;74.40
51801;DHT22;37855;53.204;6.568;2022-09-03T06:31:16;15.40;74.20
51801;DHT22;37855;53.204;6.568;2022-09-03T06:33:43;15.50;73.30
51801;DHT22;37855;53.204;6.568;2022-09-03T06:36:10;15.60;73.40
51801;DHT22;37855;53.204;6.568;2022-09-03T06:38:38;15.60;73.20
51801;DHT22;37855;53.204;6.568;2022-09-03T06:41:09;15.60;73.20
51801;DHT22;37855;53.204;6.568;2022-09-03T06:43:37;15.70;72.70
51801;DHT22;37855;53.204;6.568;2022-09-03T06:46:09;15.80;72.40
51801;DHT22;37855;53.204;6.568;2022-09-03T06:48:36;15.80;72.40
51801;DHT22;37855;53.204;6.568;2022-09-03T06:51:05;15.90;72.20
51801;DHT22;37855;53.204;6.568;2022-09-03T06:53:36;16.00;72.10
51801;DHT22;37855;53.204;6.568;2022-09-03T06:56:07;16.00;71.90
51801;DHT22;37855;53.204;6.568;2022-09-03T06:58:38;16.10;71.40
51801;DHT22;37855;53.204;6.568;2022-09-03T07:01:07;16.10;71.20
51801;DHT22;37855;53.204;6.568;2022-09-03T07:03:33;16.10;71.50
51801;DHT22;37855;53.204;6.568;2022-09-03T07:06:04;16.20;71.40
51801;DHT22;37855;53.204;6.568;2022-09-03T07:08:31;16.20;71.20
51801;DHT22;37855;53.204;6.568;2022-09-03T07:11:06;16.30;71.00
51801;DHT22;37855;53.204;6.568;2022-09-03T07:13:41;16.40;70.50
51801;DHT22;37855;53.204;6.568;2022-09-03T07:16:09;16.40;70.50
51801;DHT22;37855;53.204;6.568;2022-09-03T07:18:36;16.50;70.30
51801;DHT22;37855;53.204;6.568;2022-09-03T07:21:07;16.60;68.80
51801;DHT22;37855;53.204;6.568;2022-09-03T07:23:35;16.70;69.00
51801;DHT22;37855;53.204;6.568;2022-09-03T07:26:04;16.80;68.20
51801;DHT22;37855;53.204;6.568;2022-09-03T07:28:30;16.80;68.10
51801;DHT22;37855;53.204;6.568;2022-09-03T07:33:32;16.90;67.90
51801;DHT22;37855;53.204;6.568;2022-09-03T07:36:05;17.00;67.60
51801;DHT22;37855;53.204;6.568;2022-09-03T07:38:32;17.10;67.00
51801;DHT22;37855;53.204;6.568;2022-09-03T07:40:59;17.20;67.00
51801;DHT22;37855;53.204;6.568;2022-09-03T07:43:29;17.20;66.80
51801;DHT22;37855;53.204;6.568;2022-09-03T07:45:58;17.30;65.60
51801;DHT22;37855;53.204;6.568;2022-09-03T07:48:25;17.40;65.60
51801;DHT22;37855;53.204;6.568;2022-09-03T07:50:50;17.40;64.90
51801;DHT22;37855;53.204;6.568;2022-09-03T07:53:17;17.50;64.80
51801;DHT22;37855;53.204;6.568;2022-09-03T07:55:46;17.50;65.50
51801;DHT22;37855;53.204;6.568;2022-09-03T07:58:13;17.60;65.40
51801;DHT22;37855;53.204;6.568;2022-09-03T08:00:39;17.60;64.70
51801;DHT22;37855;53.204;6.568;2022-09-03T08:03:05;17.70;63.90
51801;DHT22;37855;53.204;6.568;2022-09-03T08:05:34;17.80;64.40
51801;DHT22;37855;53.204;6.568;2022-09-03T08:08:04;17.80;63.70
51801;DHT22;37855;53.204;6.568;2022-09-03T08:10:34;17.80;63.80
51801;DHT22;37855;53.204;6.568;2022-09-03T08:13:00;17.90;63.80
51801;DHT22;37855;53.204;6.568;2022-09-03T08:15:30;17.90;63.60
51801;DHT22;37855;53.204;6.568;2022-09-03T08:17:55;18.00;63.20
51801;DHT22;37855;53.204;6.568;2022-09-03T08:20:21;18.10;63.40
51801;DHT22;37855;53.204;6.568;2022-09-03T08:22:47;18.10;62.70
51801;DHT22;37855;53.204;6.568;2022-09-03T08:25:13;18.20;63.30
51801;DHT22;37855;53.204;6.568;2022-09-03T08:27:39;18.20;63.10
51801;DHT22;37855;53.204;6.568;2022-09-03T08:30:05;18.30;62.60
51801;DHT22;37855;53.204;6.568;2022-09-03T08:32:34;18.40;62.50
51801;DHT22;37855;53.204;6.568;2022-09-03T08:34:59;18.50;61.20
51801;DHT22;37855;53.204;6.568;2022-09-03T08:37:25;18.50;61.50
51801;DHT22;37855;53.204;6.568;2022-09-03T08:39:53;18.60;61.00
51801;DHT22;37855;53.204;6.568;2022-09-03T08:42:40;18.70;61.40
51801;DHT22;37855;53.204;6.568;2022-09-03T08:45:15;18.80;59.90
51801;DHT22;37855;53.204;6.568;2022-09-03T08:52:55;19.00;60.30
51801;DHT22;37855;53.204;6.568;2022-09-03T08:58:08;19.10;59.90
51801;DHT22;37855;53.204;6.568;2022-09-03T09:19:19;19.70;59.20
51801;DHT22;37855;53.204;6.568;2022-09-03T09:21:59;19.70;58.40
51801;DHT22;37855;53.204;6.568;2022-09-03T09:24:36;19.80;58.50
51801;DHT22;37855;53.204;6.568;2022-09-03T09:27:04;19.90;58.00
51801;DHT22;37855;53.204;6.568;2022-09-03T09:29:38;20.00;58.20
51801;DHT22;37855;53.204;6.568;2022-09-03T09:32:08;20.10;57.00
51801;DHT22;37855;53.204;6.568;2022-09-03T09:34:38;20.10;56.80
51801;DHT22;37855;53.204;6.568;2022-09-03T09:37:09;20.10;56.30
51801;DHT22;37855;53.204;6.568;2022-09-03T09:39:37;20.10;55.90
51801;DHT22;37855;53.204;6.568;2022-09-03T09:42:08;20.20;56.70
51801;DHT22;37855;53.204;6.568;2022-09-03T09:44:37;20.20;57.00
51801;DHT22;37855;53.204;6.568;2022-09-03T09:47:12;20.30;55.90
51801;DHT22;37855;53.204;6.568;2022-09-03T09:52:15;20.50;54.50
51801;DHT22;37855;53.204;6.568;2022-09-03T09:54:43;20.50;55.20
51801;DHT22;37855;53.204;6.568;2022-09-03T09:57:15;20.60;54.90
51801;DHT22;37855;53.204;6.568;2022-09-03T09:59:45;20.70;55.80
51801;DHT22;37855;53.204;6.568;2022-09-03T10:04:39;20.90;53.70
51801;DHT22;37855;53.204;6.568;2022-09-03T10:07:27;21.00;52.90
51801;DHT22;37855;53.204;6.568;2022-09-03T10:10:15;21.00;53.40
51801;DHT22;37855;53.204;6.568;2022-09-03T10:21:38;21.40;52.80
51801;DHT22;37855;53.204;6.568;2022-09-03T10:26:39;21.60;51.80
51801;DHT22;37855;53.204;6.568;2022-09-03T10:29:06;21.60;50.80
51801;DHT22;37855;53.204;6.568;2022-09-03T10:34:33;21.70;51.20
51801;DHT22;37855;53.204;6.568;2022-09-03T10:37:37;21.80;51.70
51801;DHT22;37855;53.204;6.568;2022-09-03T10:51:03;22.10;48.50
51801;DHT22;37855;53.204;6.568;2022-09-03T10:56:35;22.20;48.90
51801;DHT22;37855;53.204;6.568;2022-09-03T11:02:32;22.30;46.60
51801;DHT22;37855;53.204;6.568;2022-09-03T11:05:17;22.30;48.80
51801;DHT22;37855;53.204;6.568;2022-09-03T11:07:48;22.30;48.50
51801;DHT22;37855;53.204;6.568;2022-09-03T11:10:25;22.40;48.20
51801;DHT22;37855;53.204;6.568;2022-09-03T11:15:33;22.40;47.50
51801;DHT22;37855;53.204;6.568;2022-09-03T11:20:48;22.50;45.40
51801;DHT22;37855;53.204;6.568;2022-09-03T11:23:15;22.60;46.20
51801;DHT22;37855;53.204;6.568;2022-09-03T11:25:53;22.60;46.70
51801;DHT22;37855;53.204;6.568;2022-09-03T11:31:28;22.70;46.90
51801;DHT22;37855;53.204;6.568;2022-09-03T11:34:13;22.70;46.30
51801;DHT22;37855;53.204;6.568;2022-09-03T11:36:40;22.80;45.30
51801;DHT22;37855;53.204;6.568;2022-09-03T11:39:33;22.80;42.60
51801;DHT22;37855;53.204;6.568;2022-09-03T11:42:02;22.90;43.80
51801;DHT22;37855;53.204;6.568;2022-09-03T11:44:40;22.90;44.50
51801;DHT22;37855;53.204;6.568;2022-09-03T11:47:23;22.90;44.40
51801;DHT22;37855;53.204;6.568;2022-09-03T11:49:51;22.90;43.50
51801;DHT22;37855;53.204;6.568;2022-09-03T11:52:30;23.00;41.80
51801;DHT22;37855;53.204;6.568;2022-09-03T11:55:06;23.10;41.50
51801;DHT22;37855;53.204;6.568;2022-09-03T11:57:33;23.10;41.80
51801;DHT22;37855;53.204;6.568;2022-09-03T12:00:13;23.10;42.10
51801;DHT22;37855;53.204;6.568;2022-09-03T12:02:48;23.20;42.10
51801;DHT22;37855;53.204;6.568;2022-09-03T12:13:28;23.30;43.10
51801;DHT22;37855;53.204;6.568;2022-09-03T12:16:22;23.30;41.60
51801;DHT22;37855;53.204;6.568;2022-09-03T12:18:50;23.30;42.00
51801;DHT22;37855;53.204;6.568;2022-09-03T12:21:19;23.30;42.30
51801;DHT22;37855;53.204;6.568;2022-09-03T12:23:47;23.40;41.10
51801;DHT22;37855;53.204;6.568;2022-09-03T12:26:14;23.40;41.20
51801;DHT22;37855;53.204;6.568;2022-09-03T12:28:49;23.40;41.90
51801;DHT22;37855;53.204;6.568;2022-09-03T12:31:16;23.50;41.90
51801;DHT22;37855;53.204;6.568;2022-09-03T12:33:52;23.50;40.00
51801;DHT22;37855;53.204;6.568;2022-09-03T12:36:20;23.50;39.90
51801;DHT22;37855;53.204;6.568;2022-09-03T12:38:46;23.50;40.70
51801;DHT22;37855;53.204;6.568;2022-09-03T12:41:26;23.50;40.60
51801;DHT22;37855;53.204;6.568;2022-09-03T12:43:55;23.60;39.30
51801;DHT22;37855;53.204;6.568;2022-09-03T12:46:26;23.60;40.00
51801;DHT22;37855;53.204;6.568;2022-09-03T12:48:57;23.50;39.20
51801;DHT22;37855;53.204;6.568;2022-09-03T12:51:40;23.60;39.20
51801;DHT22;37855;53.204;6.568;2022-09-03T12:54:10;23.70;39.80
51801;DHT22;37855;53.204;6.568;2022-09-03T12:56:53;23.70;39.90
51801;DHT22;37855;53.204;6.568;2022-09-03T12:59:21;23.70;39.20
51801;DHT22;37855;53.204;6.568;2022-09-03T13:01:52;23.70;39.90
51801;DHT22;37855;53.204;6.568;2022-09-03T13:04:23;23.70;39.80
51801;DHT22;37855;53.204;6.568;2022-09-03T13:09:28;23.80;40.80
51801;DHT22;37855;53.204;6.568;2022-09-03T13:11:55;23.80;38.80
51801;DHT22;37855;53.204;6.568;2022-09-03T13:14:25;24.00;39.40
51801;DHT22;37855;53.204;6.568;2022-09-03T13:17:17;23.90;38.40
51801;DHT22;37855;53.204;6.568;2022-09-03T13:25:09;24.00;38.80
51801;DHT22;37855;53.204;6.568;2022-09-03T13:30:19;24.00;38.40
51801;DHT22;37855;53.204;6.568;2022-09-03T13:35:46;24.10;37.70
51801;DHT22;37855;53.204;6.568;2022-09-03T13:38:37;24.10;38.00
51801;DHT22;37855;53.204;6.568;2022-09-03T13:41:11;24.10;37.60
51801;DHT22;37855;53.204;6.568;2022-09-03T13:43:58;24.10;37.30
51801;DHT22;37855;53.204;6.568;2022-09-03T13:49:31;24.10;37.70
51801;DHT22;37855;53.204;6.568;2022-09-03T13:52:24;24.00;37.60
51801;DHT22;37855;53.204;6.568;2022-09-03T13:54:56;24.00;37.50
51801;DHT22;37855;53.204;6.568;2022-09-03T13:57:45;24.00;36.70
51801;DHT22;37855;53.204;6.568;2022-09-03T14:00:23;24.00;36.90
51801;DHT22;37855;53.204;6.568;2022-09-03T14:03:02;24.00;37.80
51801;DHT22;37855;53.204;6.568;2022-09-03T14:08:44;24.10;37.20
51801;DHT22;37855;53.204;6.568;2022-09-03T14:17:31;24.20;36.90
51801;DHT22;37855;53.204;6.568;2022-09-03T14:20:35;24.20;37.10
51801;DHT22;37855;53.204;6.568;2022-09-03T14:23:30;24.20;37.30
51801;DHT22;37855;53.204;6.568;2022-09-03T14:26:02;24.20;37.10
51801;DHT22;37855;53.204;6.568;2022-09-03T14:28:34;24.30;37.30
51801;DHT22;37855;53.204;6.568;2022-09-03T14:31:37;24.30;37.60
51801;DHT22;37855;53.204;6.568;2022-09-03T14:39:54;24.40;36.60
51801;DHT22;37855;53.204;6.568;2022-09-03T14:45:17;24.40;37.30
51801;DHT22;37855;53.204;6.568;2022-09-03T14:47:50;24.40;37.30
51801;DHT22;37855;53.204;6.568;2022-09-03T14:58:54;24.40;37.40
51801;DHT22;37855;53.204;6.568;2022-09-03T15:01:32;24.40;37.70
51801;DHT22;37855;53.204;6.568;2022-09-03T15:11:54;24.50;37.30
51801;DHT22;37855;53.204;6.568;2022-09-03T15:28:56;24.60;36.40
51801;DHT22;37855;53.204;6.568;2022-09-03T15:31:50;24.60;36.40
51801;DHT22;37855;53.204;6.568;2022-09-03T15:40:05;24.60;37.20
51801;DHT22;37855;53.204;6.568;2022-09-03T15:42:31;24.70;37.80
51801;DHT22;37855;53.204;6.568;2022-09-03T15:45:28;24.70;37.80
51801;DHT22;37855;53.204;6.568;2022-09-03T15:47:54;24.80;37.30
51801;DHT22;37855;53.204;6.568;2022-09-03T15:50:36;24.80;37.60
51801;DHT22;37855;53.204;6.568;2022-09-03T15:53:32;24.90;36.90
51801;DHT22;37855;53.204;6.568;2022-09-03T15:56:17;24.90;37.10
51801;DHT22;37855;53.204;6.568;2022-09-03T15:59:02;24.90;37.50
51801;DHT22;37855;53.204;6.568;2022-09-03T16:01:53;24.90;37.80
51801;DHT22;37855;53.204;6.568;2022-09-03T16:04:51;24.90;37.90
51801;DHT22;37855;53.204;6.568;2022-09-03T16:07:45;24.90;36.90
51801;DHT22;37855;53.204;6.568;2022-09-03T16:10:18;24.90;37.00
51801;DHT22;37855;53.204;6.568;2022-09-03T16:18:36;24.80;37.30
51801;DHT22;37855;53.204;6.568;2022-09-03T16:21:31;24.70;37.60
51801;DHT22;37855;53.204;6.568;2022-09-03T16:24:23;24.60;37.90
51801;DHT22;37855;53.204;6.568;2022-09-03T16:26:56;24.60;38.80
51801;DHT22;37855;53.204;6.568;2022-09-03T16:29:29;24.60;37.90
51801;DHT22;37855;53.204;6.568;2022-09-03T16:32:22;24.60;39.10
51801;DHT22;37855;53.204;6.568;2022-09-03T16:34:59;24.60;38.00
51801;DHT22;37855;53.204;6.568;2022-09-03T16:40:37;24.60;38.40
51801;DHT22;37855;53.204;6.568;2022-09-03T16:48:59;24.60;39.20
51801;DHT22;37855;53.204;6.568;2022-09-03T17:00:08;24.60;39.00
51801;DHT22;37855;53.204;6.568;2022-09-03T17:03:03;24.60;39.20
51801;DHT22;37855;53.204;6.568;2022-09-03T17:06:12;24.60;39.70
51801;DHT22;37855;53.204;6.568;2022-09-03T17:08:51;24.60;40.00
51801;DHT22;37855;53.204;6.568;2022-09-03T17:16:57;24.40;39.80
51801;DHT22;37855;53.204;6.568;2022-09-03T17:19:38;24.40;40.00
51801;DHT22;37855;53.204;6.568;2022-09-03T17:25:04;24.30;40.10
51801;DHT22;37855;53.204;6.568;2022-09-03T17:30:38;24.20;40.70
51801;DHT22;37855;53.204;6.568;2022-09-03T17:36:15;24.20;41.00
51801;DHT22;37855;53.204;6.568;2022-09-03T17:41:53;24.00;42.40
51801;DHT22;37855;53.204;6.568;2022-09-03T17:52:47;23.40;44.50
51801;DHT22;37855;53.204;6.568;2022-09-03T17:55:31;23.30;44.70
51801;DHT22;37855;53.204;6.568;2022-09-03T17:58:31;23.20;44.60
51801;DHT22;37855;53.204;6.568;2022-09-03T18:01:14;23.20;44.50
51801;DHT22;37855;53.204;6.568;2022-09-03T18:12:48;22.80;45.60
51801;DHT22;37855;53.204;6.568;2022-09-03T18:15:24;22.70;45.60
51801;DHT22;37855;53.204;6.568;2022-09-03T18:18:07;22.60;46.10
51801;DHT22;37855;53.204;6.568;2022-09-03T18:20:49;22.60;47.00
51801;DHT22;37855;53.204;6.568;2022-09-03T18:26:56;22.40;47.40
51801;DHT22;37855;53.204;6.568;2022-09-03T18:29:55;22.30;47.90
51801;DHT22;37855;53.204;6.568;2022-09-03T18:32:42;22.30;47.90
51801;DHT22;37855;53.204;6.568;2022-09-03T18:35:29;22.20;48.30
51801;DHT22;37855;53.204;6.568;2022-09-03T18:38:14;22.10;48.40
51801;DHT22;37855;53.204;6.568;2022-09-03T18:44:05;22.00;49.00
51801;DHT22;37855;53.204;6.568;2022-09-03T18:47:26;21.90;49.50
51801;DHT22;37855;53.204;6.568;2022-09-03T19:02:55;21.60;50.40
51801;DHT22;37855;53.204;6.568;2022-09-03T19:15:25;21.30;50.70
51801;DHT22;37855;53.204;6.568;2022-09-03T19:18:47;21.30;50.40
51801;DHT22;37855;53.204;6.568;2022-09-03T19:21:46;21.20;50.30
51801;DHT22;37855;53.204;6.568;2022-09-03T19:24:31;21.20;50.80
51801;DHT22;37855;53.204;6.568;2022-09-03T19:27:30;21.10;50.00
51801;DHT22;37855;53.204;6.568;2022-09-03T19:30:34;21.20;49.90
51801;DHT22;37855;53.204;6.568;2022-09-03T19:45:34;21.00;50.80
51801;DHT22;37855;53.204;6.568;2022-09-03T19:51:30;20.90;50.20
51801;DHT22;37855;53.204;6.568;2022-09-03T19:54:19;20.80;49.90
51801;DHT22;37855;53.204;6.568;2022-09-03T19:57:05;20.80;49.90
51801;DHT22;37855;53.204;6.568;2022-09-03T19:59:51;20.70;50.00
51801;DHT22;37855;53.204;6.568;2022-09-03T20:02:38;20.70;49.90
51801;DHT22;37855;53.204;6.568;2022-09-03T20:05:22;20.70;50.00
51801;DHT22;37855;53.204;6.568;2022-09-03T20:08:07;20.70;50.10
51801;DHT22;37855;53.204;6.568;2022-09-03T20:10:55;20.60;50.10
51801;DHT22;37855;53.204;6.568;2022-09-03T20:13:21;20.60;50.10
51801;DHT22;37855;53.204;6.568;2022-09-03T20:16:01;20.50;50.40
51801;DHT22;37855;53.204;6.568;2022-09-03T20:21:41;20.50;51.50
51801;DHT22;37855;53.204;6.568;2022-09-03T20:35:26;20.40;50.50
51801;DHT22;37855;53.204;6.568;2022-09-03T20:52:16;20.30;50.40
51801;DHT22;37855;53.204;6.568;2022-09-03T21:00:20;20.10;50.80
51801;DHT22;37855;53.204;6.568;2022-09-03T21:03:08;20.10;50.70
51801;DHT22;37855;53.204;6.568;2022-09-03T21:08:48;20.00;50.80
51801;DHT22;37855;53.204;6.568;2022-09-03T21:11:36;20.00;51.10
51801;DHT22;37855;53.204;6.568;2022-09-03T21:14:21;20.00;51.70
51801;DHT22;37855;53.204;6.568;2022-09-03T21:17:06;20.00;51.60
51801;DHT22;37855;53.204;6.568;2022-09-03T21:24:51;19.90;51.60
51801;DHT22;37855;53.204;6.568;2022-09-03T21:27:24;19.90;52.10
51801;DHT22;37855;53.204;6.568;2022-09-03T21:30:08;19.90;51.50
51801;DHT22;37855;53.204;6.568;2022-09-03T21:32:42;19.80;51.30
51801;DHT22;37855;53.204;6.568;2022-09-03T21:35:33;19.60;52.10
51801;DHT22;37855;53.204;6.568;2022-09-03T21:38:06;19.60;52.60
51801;DHT22;37855;53.204;6.568;2022-09-03T21:40:34;19.60;52.10
51801;DHT22;37855;53.204;6.568;2022-09-03T21:43:24;19.50;52.60
51801;DHT22;37855;53.204;6.568;2022-09-03T21:46:36;19.60;52.10
51801;DHT22;37855;53.204;6.568;2022-09-03T21:49:00;19.60;51.80
51801;DHT22;37855;53.204;6.568;2022-09-03T21:51:34;19.60;52.20
51801;DHT22;37855;53.204;6.568;2022-09-03T21:54:08;19.50;52.00
51801;DHT22;37855;53.204;6.568;2022-09-03T22:04:30;19.50;51.50
51801;DHT22;37855;53.204;6.568;2022-09-03T22:07:19;19.40;51.90
51801;DHT22;37855;53.204;6.568;2022-09-03T22:10:06;19.40;51.70